createdAt,value
2022-11-30T00:00:50.013Z,12.01
2022-11-30T00:01:53.585Z,12.01
2022-11-30T00:02:56.959Z,12.01
2022-11-30T00:03:58.461Z,12.01
2022-11-30T00:04:59.918Z,12.00
2022-11-30T00:06:05.525Z,12.00
2022-11-30T00:07:07.012Z,12.00
2022-11-30T00:08:08.462Z,12.00
2022-11-30T00:09:09.973Z,12.00
2022-11-30T00:10:11.563Z,11.99
2022-11-30T00:11:14.389Z,11.98
2022-11-30T00:12:15.923Z,11.97
2022-11-30T00:13:17.394Z,11.99
2022-11-30T00:14:18.898Z,11.99
2022-11-30T00:15:20.463Z,11.98
2022-11-30T00:16:23.590Z,11.97
2022-11-30T00:17:25.121Z,11.98
2022-11-30T00:18:28.016Z,11.97
2022-11-30T00:19:29.490Z,11.97
2022-11-30T00:20:31.047Z,11.97
2022-11-30T00:21:32.547Z,11.97
2022-11-30T00:22:34.102Z,11.96
2022-11-30T00:23:36.620Z,11.95
2022-11-30T00:24:38.079Z,11.96
2022-11-30T00:25:39.551Z,11.97
2022-11-30T00:26:41.038Z,11.97
2022-11-30T00:27:43.013Z,11.96
2022-11-30T00:28:45.769Z,11.98
2022-11-30T00:29:47.219Z,11.97
2022-11-30T00:31:01.652Z,11.97
2022-11-30T00:32:03.236Z,11.97
2022-11-30T00:33:04.716Z,11.97
2022-11-30T00:34:06.145Z,11.96
2022-11-30T00:35:07.713Z,11.95
2022-11-30T00:36:11.246Z,11.96
2022-11-30T00:37:14.872Z,11.96
2022-11-30T00:38:17.483Z,11.96
2022-11-30T00:39:18.923Z,11.96
2022-11-30T00:40:23.431Z,11.98
2022-11-30T00:41:24.979Z,11.98
2022-11-30T00:42:28.479Z,11.99
2022-11-30T00:43:29.976Z,11.98
2022-11-30T00:44:31.770Z,12.00
2022-11-30T00:45:33.217Z,11.99
2022-11-30T00:46:34.789Z,12.00
2022-11-30T00:47:36.425Z,12.00
2022-11-30T00:48:40.770Z,12.01
2022-11-30T00:49:44.973Z,12.00
2022-11-30T00:50:47.885Z,12.00
2022-11-30T00:51:49.427Z,11.99
2022-11-30T00:52:53.621Z,11.98
2022-11-30T00:53:55.147Z,11.96
2022-11-30T00:54:56.666Z,11.96
2022-11-30T00:55:58.131Z,11.97
2022-11-30T00:56:59.680Z,11.97
2022-11-30T00:58:04.359Z,11.98
2022-11-30T00:59:05.910Z,11.98
2022-11-30T01:00:07.746Z,11.98
2022-11-30T01:01:09.376Z,11.98
2022-11-30T01:02:14.280Z,11.97
2022-11-30T01:03:15.758Z,11.98
2022-11-30T01:04:17.233Z,11.97
2022-11-30T01:05:18.736Z,11.97
2022-11-30T01:06:20.267Z,11.96
2022-11-30T01:07:21.752Z,11.96
2022-11-30T01:08:25.530Z,11.97
2022-11-30T01:09:26.973Z,11.98
2022-11-30T01:10:28.525Z,11.96
2022-11-30T01:11:30.159Z,11.97
2022-11-30T01:12:31.599Z,11.96
2022-11-30T01:13:33.119Z,11.96
2022-11-30T01:14:34.616Z,11.96
2022-11-30T01:15:36.839Z,11.95
2022-11-30T01:16:38.429Z,11.96
2022-11-30T01:17:39.877Z,11.96
2022-11-30T01:18:41.731Z,11.97
2022-11-30T01:19:43.234Z,11.98
2022-11-30T01:20:44.694Z,11.97
2022-11-30T01:21:48.087Z,11.98
2022-11-30T01:22:49.614Z,11.99
2022-11-30T01:23:51.173Z,11.99
2022-11-30T01:24:52.623Z,11.99
2022-11-30T01:25:54.946Z,11.98
2022-11-30T01:26:56.389Z,11.99
2022-11-30T01:27:58.059Z,11.97
2022-11-30T01:29:05.331Z,11.98
2022-11-30T01:30:07.430Z,11.98
2022-11-30T01:31:11.961Z,11.99
2022-11-30T01:32:13.420Z,11.99
2022-11-30T01:33:15.519Z,12.00
2022-11-30T01:34:17.010Z,12.00
2022-11-30T01:35:18.476Z,12.01
2022-11-30T01:36:20.970Z,12.00
2022-11-30T01:37:23.074Z,11.99
2022-11-30T01:38:24.502Z,12.01
2022-11-30T01:39:26.031Z,12.01
2022-11-30T01:40:27.469Z,12.01
2022-11-30T01:41:34.199Z,12.00
2022-11-30T01:42:38.008Z,12.00
2022-11-30T01:43:43.559Z,12.01
2022-11-30T01:44:55.265Z,12.02
2022-11-30T01:45:56.770Z,12.03
2022-11-30T01:47:19.432Z,12.02
2022-11-30T01:48:21.134Z,12.02
2022-11-30T01:49:41.447Z,12.02
2022-11-30T01:50:42.882Z,12.03
2022-11-30T01:51:44.394Z,12.02
2022-11-30T01:52:50.621Z,12.01
2022-11-30T01:53:52.074Z,12.01
2022-11-30T01:54:57.615Z,12.02
2022-11-30T01:56:07.746Z,11.99
2022-11-30T01:57:11.421Z,12.00
2022-11-30T01:58:14.207Z,12.01
2022-11-30T01:59:16.242Z,12.02
2022-11-30T02:00:20.785Z,12.03
2022-11-30T02:01:22.299Z,12.01
2022-11-30T02:02:26.745Z,12.04
2022-11-30T02:03:43.586Z,12.03
2022-11-30T02:04:46.750Z,12.03
2022-11-30T02:05:48.437Z,12.03
2022-11-30T02:06:49.893Z,12.03
2022-11-30T02:07:51.662Z,12.03
2022-11-30T02:08:53.333Z,12.04
2022-11-30T02:09:54.786Z,12.04
2022-11-30T02:10:58.440Z,12.05
2022-11-30T02:12:00.369Z,12.04
2022-11-30T02:13:19.779Z,12.04
2022-11-30T02:14:21.209Z,12.05
2022-11-30T02:15:23.924Z,12.05
2022-11-30T02:16:31.672Z,12.05
2022-11-30T02:17:36.781Z,12.03
2022-11-30T02:18:38.230Z,12.03
2022-11-30T02:19:58.082Z,12.01
2022-11-30T02:21:25.755Z,12.03
2022-11-30T02:22:46.012Z,12.02
2022-11-30T02:23:51.060Z,12.03
2022-11-30T02:25:19.119Z,12.03
2022-11-30T02:26:27.961Z,12.04
2022-11-30T02:27:29.476Z,12.04
2022-11-30T02:28:46.247Z,12.05
2022-11-30T02:29:49.574Z,12.06
2022-11-30T02:30:51.076Z,12.06
2022-11-30T02:31:58.202Z,12.08
2022-11-30T02:33:00.705Z,12.07
2022-11-30T02:34:02.151Z,12.07
2022-11-30T02:35:04.304Z,12.06
2022-11-30T02:36:06.042Z,12.05
2022-11-30T02:37:10.185Z,12.06
2022-11-30T02:38:11.708Z,12.04
2022-11-30T02:39:13.194Z,12.04
2022-11-30T02:40:15.158Z,12.04
2022-11-30T02:41:19.667Z,12.05
2022-11-30T02:42:21.115Z,12.06
2022-11-30T02:43:22.987Z,12.06
2022-11-30T02:44:24.455Z,12.06
2022-11-30T02:45:44.631Z,12.05
2022-11-30T02:46:46.420Z,12.06
2022-11-30T02:47:55.102Z,12.06
2022-11-30T02:49:03.647Z,12.07
2022-11-30T02:50:14.609Z,12.06
2022-11-30T02:51:17.657Z,12.06
2022-11-30T02:52:19.954Z,12.06
2022-11-30T02:53:28.777Z,12.05
2022-11-30T02:54:33.300Z,12.06
2022-11-30T02:55:37.449Z,12.06
2022-11-30T02:56:38.932Z,12.06
2022-11-30T02:57:40.395Z,12.06
2022-11-30T02:58:41.829Z,12.06
2022-11-30T02:59:43.306Z,12.07
2022-11-30T03:00:46.108Z,12.07
2022-11-30T03:01:47.621Z,12.08
2022-11-30T03:02:49.930Z,12.08
2022-11-30T03:03:53.511Z,12.08
2022-11-30T03:04:54.981Z,12.09
2022-11-30T03:05:56.437Z,12.07
2022-11-30T03:06:57.909Z,12.07
2022-11-30T03:07:59.450Z,12.06
2022-11-30T03:09:01.014Z,12.07
2022-11-30T03:10:03.112Z,12.06
2022-11-30T03:11:04.804Z,12.07
2022-11-30T03:12:06.387Z,12.08
2022-11-30T03:13:07.875Z,12.07
2022-11-30T03:14:09.420Z,12.07
2022-11-30T03:15:10.933Z,12.08
2022-11-30T03:16:12.580Z,12.07
2022-11-30T03:17:14.190Z,12.05
2022-11-30T03:18:15.745Z,12.05
2022-11-30T03:19:17.182Z,12.06
2022-11-30T03:20:18.616Z,12.06
2022-11-30T03:21:20.183Z,12.06
2022-11-30T03:22:21.745Z,12.06
2022-11-30T03:23:23.237Z,12.06
2022-11-30T03:24:24.673Z,12.05
2022-11-30T03:25:28.379Z,12.05
2022-11-30T03:26:29.904Z,12.05
2022-11-30T03:27:40.454Z,12.06
2022-11-30T03:28:41.975Z,12.05
2022-11-30T03:29:43.494Z,12.04
2022-11-30T03:30:48.584Z,12.05
2022-11-30T03:31:50.150Z,12.05
2022-11-30T03:32:52.324Z,12.06
2022-11-30T03:33:53.798Z,12.05
2022-11-30T03:34:55.284Z,12.05
2022-11-30T03:36:03.694Z,12.06
2022-11-30T03:37:05.262Z,12.05
2022-11-30T03:38:06.691Z,12.05
2022-11-30T03:39:09.486Z,12.04
2022-11-30T03:40:11.447Z,12.04
2022-11-30T03:41:14.262Z,12.04
2022-11-30T03:42:15.734Z,12.03
2022-11-30T03:43:17.195Z,12.03
2022-11-30T03:44:18.821Z,12.01
2022-11-30T03:45:20.258Z,12.01
2022-11-30T03:46:21.819Z,12.01
2022-11-30T03:47:23.307Z,12.01
2022-11-30T03:48:33.606Z,12.00
2022-11-30T03:49:35.108Z,12.01
2022-11-30T03:50:38.611Z,12.01
2022-11-30T03:51:42.889Z,12.01
2022-11-30T03:52:47.398Z,12.00
2022-11-30T03:53:49.116Z,12.01
2022-11-30T03:54:50.655Z,12.01
2022-11-30T03:55:55.546Z,12.02
2022-11-30T03:56:59.604Z,12.02
2022-11-30T03:58:01.119Z,12.03
2022-11-30T03:59:02.617Z,12.01
2022-11-30T04:00:04.640Z,12.02
2022-11-30T04:01:14.362Z,12.02
2022-11-30T04:02:15.805Z,12.02
2022-11-30T04:03:17.412Z,11.86
2022-11-30T04:04:21.283Z,12.01
2022-11-30T04:05:22.712Z,12.01
2022-11-30T04:06:24.174Z,12.02
2022-11-30T04:07:25.681Z,12.03
2022-11-30T04:08:27.397Z,12.02
2022-11-30T04:09:28.903Z,12.02
2022-11-30T04:10:32.495Z,12.02
2022-11-30T04:11:36.653Z,12.03
2022-11-30T04:12:38.121Z,12.04
2022-11-30T04:13:39.692Z,12.04
2022-11-30T04:14:41.183Z,12.04
2022-11-30T04:15:45.682Z,12.05
2022-11-30T04:16:47.218Z,12.05
2022-11-30T04:17:48.691Z,12.04
2022-11-30T04:18:52.527Z,12.05
2022-11-30T04:19:53.973Z,12.05
2022-11-30T04:20:55.755Z,12.05
2022-11-30T04:21:57.250Z,12.05
2022-11-30T04:22:58.750Z,12.06
2022-11-30T04:24:01.193Z,12.05
2022-11-30T04:25:02.845Z,12.04
2022-11-30T04:26:04.854Z,12.05
2022-11-30T04:27:06.307Z,12.04
2022-11-30T04:28:08.088Z,12.03
2022-11-30T04:29:09.578Z,12.03
2022-11-30T04:30:11.330Z,12.04
2022-11-30T04:31:15.037Z,12.03
2022-11-30T04:32:16.539Z,12.03
2022-11-30T04:33:18.081Z,12.03
2022-11-30T04:34:19.542Z,12.03
2022-11-30T04:35:21.045Z,12.03
2022-11-30T04:36:24.243Z,12.03
2022-11-30T04:37:27.150Z,12.04
2022-11-30T04:38:28.660Z,12.03
2022-11-30T04:39:32.504Z,12.03
2022-11-30T04:40:33.986Z,12.02
2022-11-30T04:41:36.165Z,12.03
2022-11-30T04:42:37.622Z,12.03
2022-11-30T04:43:46.532Z,12.01
2022-11-30T04:44:48.132Z,12.03
2022-11-30T04:45:49.863Z,12.03
2022-11-30T04:46:51.344Z,12.01
2022-11-30T04:47:52.825Z,12.02
2022-11-30T04:48:54.303Z,12.03
2022-11-30T04:49:55.833Z,12.03
2022-11-30T04:51:01.474Z,12.04
2022-11-30T04:52:03.153Z,12.05
2022-11-30T04:53:04.594Z,12.05
2022-11-30T04:54:06.059Z,12.05
2022-11-30T04:55:07.734Z,12.05
2022-11-30T04:56:09.494Z,12.05
2022-11-30T04:57:10.927Z,12.06
2022-11-30T04:58:12.413Z,12.05
2022-11-30T04:59:13.988Z,12.07
2022-11-30T05:00:15.951Z,12.08
2022-11-30T05:01:17.592Z,12.07
2022-11-30T05:02:19.085Z,12.06
2022-11-30T05:03:20.523Z,12.07
2022-11-30T05:04:22.023Z,12.07
2022-11-30T05:05:23.733Z,12.06
2022-11-30T05:06:27.272Z,12.03
2022-11-30T05:07:28.798Z,12.04
2022-11-30T05:08:30.327Z,12.03
2022-11-30T05:09:31.922Z,12.04
2022-11-30T05:10:33.849Z,12.04
2022-11-30T05:11:36.293Z,12.06
2022-11-30T05:12:37.746Z,12.06
2022-11-30T05:13:39.238Z,12.06
2022-11-30T05:14:43.796Z,12.06
2022-11-30T05:15:45.695Z,12.06
2022-11-30T05:16:47.564Z,12.07
2022-11-30T05:17:49.001Z,12.06
2022-11-30T05:18:50.488Z,12.07
2022-11-30T05:19:51.965Z,12.07
2022-11-30T05:20:53.452Z,12.08
2022-11-30T05:21:54.946Z,12.08
2022-11-30T05:22:56.462Z,12.09
2022-11-30T05:23:58.012Z,12.08
2022-11-30T05:24:59.501Z,12.08
2022-11-30T05:26:03.780Z,12.10
2022-11-30T05:27:10.680Z,12.08
2022-11-30T05:28:15.086Z,12.07
2022-11-30T05:29:16.572Z,12.08
2022-11-30T05:30:20.663Z,12.08
2022-11-30T05:31:22.268Z,12.06
2022-11-30T05:32:23.760Z,12.07
2022-11-30T05:33:26.179Z,12.07
2022-11-30T05:34:27.762Z,12.08
2022-11-30T05:35:29.223Z,12.08
2022-11-30T05:36:33.754Z,12.09
2022-11-30T05:37:35.190Z,12.11
2022-11-30T05:38:36.818Z,12.10
2022-11-30T05:39:38.323Z,12.10
2022-11-30T05:40:42.859Z,12.10
2022-11-30T05:41:45.185Z,12.11
2022-11-30T05:42:46.763Z,12.12
2022-11-30T05:43:48.198Z,12.12
2022-11-30T05:44:50.141Z,12.12
2022-11-30T05:45:51.903Z,12.12
2022-11-30T05:46:56.495Z,12.13
2022-11-30T05:47:58.102Z,12.12
2022-11-30T05:49:05.591Z,12.12
2022-11-30T05:50:07.300Z,12.12
2022-11-30T05:51:09.891Z,12.11
2022-11-30T05:52:11.349Z,12.11
2022-11-30T05:53:12.830Z,12.11
2022-11-30T05:54:14.286Z,12.10
2022-11-30T05:55:15.802Z,12.10
2022-11-30T05:56:18.211Z,12.09
2022-11-30T05:57:19.672Z,12.08
2022-11-30T05:58:21.142Z,12.10
2022-11-30T05:59:22.976Z,12.08
2022-11-30T06:00:24.534Z,12.08
2022-11-30T06:01:26.866Z,12.08
2022-11-30T06:02:53.778Z,12.09
2022-11-30T06:03:55.417Z,12.08
2022-11-30T06:04:56.869Z,12.09
2022-11-30T06:05:58.315Z,12.10
2022-11-30T06:06:59.779Z,12.10
2022-11-30T06:08:01.478Z,12.10
2022-11-30T06:09:05.671Z,12.11
2022-11-30T06:10:07.451Z,12.11
2022-11-30T06:11:08.943Z,12.11
2022-11-30T06:12:13.470Z,12.12
2022-11-30T06:13:15.005Z,12.13
2022-11-30T06:14:16.466Z,12.13
2022-11-30T06:15:18.013Z,12.13
2022-11-30T06:16:19.510Z,12.14
2022-11-30T06:17:20.991Z,12.14
2022-11-30T06:18:24.577Z,12.14
2022-11-30T06:19:26.033Z,12.13
2022-11-30T06:20:28.235Z,12.15
2022-11-30T06:21:29.677Z,12.15
2022-11-30T06:22:31.138Z,12.16
2022-11-30T06:23:35.786Z,12.16
2022-11-30T06:24:37.242Z,12.16
2022-11-30T06:25:38.734Z,12.17
2022-11-30T06:26:45.903Z,12.16
2022-11-30T06:27:50.148Z,12.15
2022-11-30T06:28:57.741Z,12.16
2022-11-30T06:29:59.278Z,12.17
2022-11-30T06:31:00.919Z,12.16
2022-11-30T06:32:02.465Z,12.17
2022-11-30T06:33:04.106Z,12.16
2022-11-30T06:34:08.356Z,12.15
2022-11-30T06:35:10.240Z,12.14
2022-11-30T06:36:11.704Z,12.15
2022-11-30T06:37:13.181Z,12.14
2022-11-30T06:38:14.642Z,12.13
2022-11-30T06:39:50.090Z,12.13
2022-11-30T06:40:46.284Z,12.13
2022-11-30T06:41:53.015Z,12.13
2022-11-30T06:42:55.911Z,12.13
2022-11-30T06:43:57.387Z,12.13
2022-11-30T06:45:00.243Z,12.14
2022-11-30T06:46:01.940Z,12.14
2022-11-30T06:47:04.248Z,12.14
2022-11-30T06:48:05.709Z,12.13
2022-11-30T06:49:14.869Z,12.14
2022-11-30T06:50:16.406Z,12.15
2022-11-30T06:51:17.958Z,12.14
2022-11-30T06:52:21.295Z,12.14
2022-11-30T06:53:26.038Z,12.15
2022-11-30T06:54:30.081Z,12.15
2022-11-30T06:55:32.914Z,12.15
2022-11-30T06:56:36.730Z,12.16
2022-11-30T06:57:38.175Z,12.16
2022-11-30T06:58:42.451Z,12.16
2022-11-30T06:59:43.933Z,12.17
2022-11-30T07:00:52.631Z,12.17
2022-11-30T07:01:54.146Z,12.16
2022-11-30T07:02:55.665Z,12.17
2022-11-30T07:03:57.157Z,12.17
2022-11-30T07:05:00.991Z,12.16
2022-11-30T07:06:05.848Z,12.16
2022-11-30T07:07:07.605Z,12.17
2022-11-30T07:08:09.115Z,12.17
2022-11-30T07:09:13.207Z,12.17
2022-11-30T07:10:23.697Z,12.16
2022-11-30T07:11:28.299Z,12.15
2022-11-30T07:12:29.755Z,12.16
2022-11-30T07:13:31.283Z,12.15
2022-11-30T07:14:32.710Z,12.14
2022-11-30T07:15:37.020Z,12.16
2022-11-30T07:16:38.601Z,12.15
2022-11-30T07:17:40.070Z,12.17
2022-11-30T07:18:41.537Z,12.16
2022-11-30T07:19:43.264Z,12.17
2022-11-30T07:20:44.890Z,12.18
2022-11-30T07:21:46.395Z,12.18
2022-11-30T07:22:47.918Z,12.18
2022-11-30T07:24:07.817Z,12.19
2022-11-30T07:25:28.025Z,12.19
2022-11-30T07:26:37.348Z,12.21
2022-11-30T07:27:38.777Z,12.18
2022-11-30T07:28:40.935Z,12.18
2022-11-30T07:29:44.507Z,12.19
2022-11-30T07:30:45.967Z,12.17
2022-11-30T07:31:50.277Z,12.17
2022-11-30T07:32:51.814Z,12.18
2022-11-30T07:33:53.621Z,12.18
2022-11-30T07:34:55.078Z,12.19
2022-11-30T07:35:56.634Z,12.17
2022-11-30T07:36:58.097Z,12.18
2022-11-30T07:37:59.554Z,12.18
2022-11-30T07:39:04.214Z,12.16
2022-11-30T07:40:06.645Z,12.16
2022-11-30T07:41:08.325Z,12.15
2022-11-30T07:42:18.684Z,12.16
2022-11-30T07:43:22.285Z,12.16
2022-11-30T07:44:23.764Z,12.17
2022-11-30T07:45:25.393Z,12.18
2022-11-30T07:46:26.828Z,12.20
2022-11-30T07:47:32.274Z,12.20
2022-11-30T07:48:39.096Z,12.22
2022-11-30T07:49:40.811Z,12.21
2022-11-30T07:50:45.503Z,12.22
2022-11-30T07:51:46.997Z,12.23
2022-11-30T07:52:48.439Z,12.22
2022-11-30T07:53:51.357Z,12.22
2022-11-30T07:54:53.005Z,12.22
2022-11-30T07:55:57.010Z,12.21
2022-11-30T07:56:58.586Z,12.21
2022-11-30T07:58:00.044Z,12.20
2022-11-30T07:59:01.808Z,12.21
2022-11-30T08:00:03.660Z,12.21
2022-11-30T08:01:17.180Z,12.21
2022-11-30T08:02:18.927Z,12.22
2022-11-30T08:03:20.498Z,12.22
2022-11-30T08:04:22.102Z,12.21
2022-11-30T08:05:28.991Z,12.20
2022-11-30T08:06:31.453Z,12.20
2022-11-30T08:07:35.713Z,12.21
2022-11-30T08:08:41.099Z,12.21
2022-11-30T08:09:42.629Z,12.22
2022-11-30T08:10:44.087Z,12.24
2022-11-30T08:11:45.526Z,12.24
2022-11-30T08:12:47.537Z,12.24
2022-11-30T08:13:51.435Z,12.25
2022-11-30T08:15:19.332Z,12.25
2022-11-30T08:16:22.552Z,12.24
2022-11-30T08:17:24.028Z,12.23
2022-11-30T08:18:30.942Z,12.21
2022-11-30T08:19:32.715Z,12.24
2022-11-30T08:20:34.149Z,12.23
2022-11-30T08:21:35.702Z,12.24
2022-11-30T08:22:37.146Z,12.25
2022-11-30T08:23:40.237Z,12.25
2022-11-30T08:24:41.793Z,12.26
2022-11-30T08:25:43.322Z,12.26
2022-11-30T08:26:46.426Z,12.27
2022-11-30T08:27:47.860Z,12.27
2022-11-30T08:28:49.728Z,12.29
2022-11-30T08:29:51.259Z,12.29
2022-11-30T08:30:52.777Z,12.30
2022-11-30T08:31:54.949Z,12.30
2022-11-30T08:33:01.784Z,12.31
2022-11-30T08:34:06.991Z,12.33
2022-11-30T08:35:11.134Z,12.35
2022-11-30T08:36:13.503Z,12.36
2022-11-30T08:37:15.037Z,12.36
2022-11-30T08:38:16.518Z,12.36
2022-11-30T08:39:17.977Z,12.36
2022-11-30T08:40:22.738Z,12.36
2022-11-30T08:41:24.239Z,12.36
2022-11-30T08:42:25.718Z,12.37
2022-11-30T08:43:27.782Z,12.38
2022-11-30T08:44:29.371Z,12.37
2022-11-30T08:45:30.858Z,12.39
2022-11-30T08:46:50.823Z,12.39
2022-11-30T08:47:56.376Z,12.40
2022-11-30T08:49:12.926Z,12.41
2022-11-30T08:50:20.032Z,12.42
2022-11-30T08:51:22.303Z,12.45
2022-11-30T08:52:26.943Z,12.44
2022-11-30T08:53:30.549Z,12.44
2022-11-30T08:54:34.319Z,12.45
2022-11-30T08:55:35.826Z,12.46
2022-11-30T08:56:37.295Z,12.46
2022-11-30T08:57:38.801Z,12.46
2022-11-30T08:58:40.290Z,12.46
2022-11-30T08:59:41.842Z,12.46
2022-11-30T09:00:43.282Z,12.45
2022-11-30T09:01:52.093Z,12.47
2022-11-30T09:02:53.669Z,12.47
2022-11-30T09:03:55.593Z,12.47
2022-11-30T09:04:57.070Z,12.48
2022-11-30T09:06:06.044Z,12.48
2022-11-30T09:07:07.611Z,12.48
2022-11-30T09:08:09.135Z,12.50
2022-11-30T09:09:10.662Z,12.51
2022-11-30T09:10:18.239Z,12.52
2022-11-30T09:11:20.606Z,12.51
2022-11-30T09:12:22.063Z,12.50
2022-11-30T09:13:23.527Z,12.51
2022-11-30T09:14:27.911Z,12.51
2022-11-30T09:15:31.528Z,12.51
2022-11-30T09:16:33.115Z,12.52
2022-11-30T09:17:34.682Z,12.53
2022-11-30T09:18:36.215Z,12.55
2022-11-30T09:19:37.708Z,12.55
2022-11-30T09:20:39.148Z,12.51
2022-11-30T09:21:40.713Z,12.52
2022-11-30T09:22:44.953Z,12.53
2022-11-30T09:23:46.619Z,12.51
2022-11-30T09:24:48.285Z,12.50
2022-11-30T09:25:54.787Z,12.49
2022-11-30T09:26:57.264Z,12.48
2022-11-30T09:27:58.767Z,12.49
2022-11-30T09:29:06.060Z,12.49
2022-11-30T09:30:07.809Z,12.49
2022-11-30T09:31:13.318Z,12.47
2022-11-30T09:32:14.947Z,12.46
2022-11-30T09:33:16.534Z,12.46
2022-11-30T09:34:17.998Z,12.45
2022-11-30T09:35:19.512Z,12.46
2022-11-30T09:36:21.368Z,12.47
2022-11-30T09:37:23.748Z,12.48
2022-11-30T09:38:29.179Z,12.48
2022-11-30T09:39:33.694Z,12.51
2022-11-30T09:40:35.832Z,12.52
2022-11-30T09:41:45.313Z,12.51
2022-11-30T09:43:24.967Z,12.52
2022-11-30T09:44:40.055Z,12.38
2022-11-30T09:45:42.660Z,12.51
2022-11-30T09:46:45.579Z,12.51
2022-11-30T09:47:59.292Z,12.52
2022-11-30T09:49:02.147Z,12.54
2022-11-30T09:50:04.864Z,12.54
2022-11-30T09:51:08.830Z,12.55
2022-11-30T09:52:16.881Z,12.56
2022-11-30T09:53:28.978Z,12.56
2022-11-30T09:54:37.831Z,12.54
2022-11-30T09:55:47.435Z,12.54
2022-11-30T09:56:48.945Z,12.56
2022-11-30T09:57:53.134Z,12.56
2022-11-30T09:58:56.173Z,12.55
2022-11-30T09:59:58.504Z,12.53
2022-11-30T10:01:05.043Z,12.52
2022-11-30T10:02:15.614Z,12.49
2022-11-30T10:03:17.194Z,12.47
2022-11-30T10:04:28.323Z,12.44
2022-11-30T10:05:46.891Z,12.44
2022-11-30T10:07:00.107Z,12.40
2022-11-30T10:08:20.251Z,12.38
2022-11-30T10:09:40.522Z,12.40
2022-11-30T10:11:00.622Z,12.40
2022-11-30T10:12:15.214Z,12.41
2022-11-30T10:13:35.300Z,12.43
2022-11-30T10:14:45.834Z,12.43
2022-11-30T10:15:54.356Z,12.44
2022-11-30T10:17:08.227Z,12.46
2022-11-30T10:18:23.674Z,12.49
2022-11-30T10:19:46.667Z,12.50
2022-11-30T10:20:54.170Z,12.55
2022-11-30T10:21:59.243Z,12.57
2022-11-30T10:23:04.629Z,12.57
2022-11-30T10:24:12.834Z,12.60
2022-11-30T10:25:20.385Z,12.61
2022-11-30T10:26:24.803Z,12.62
2022-11-30T10:27:32.203Z,12.64
2022-11-30T10:28:49.288Z,12.64
2022-11-30T10:29:50.781Z,12.66
2022-11-30T10:30:52.344Z,12.67
2022-11-30T10:31:55.606Z,12.68
2022-11-30T10:32:58.614Z,12.71
2022-11-30T10:34:03.461Z,12.72
2022-11-30T10:35:34.084Z,12.73
2022-11-30T10:36:36.992Z,12.75
2022-11-30T10:37:39.469Z,12.77
2022-11-30T10:38:46.214Z,12.78
2022-11-30T10:39:55.495Z,12.81
2022-11-30T10:41:15.606Z,12.81
2022-11-30T10:42:21.314Z,12.82
2022-11-30T10:43:22.789Z,12.83
2022-11-30T10:44:26.000Z,12.83
2022-11-30T10:45:27.447Z,12.82
2022-11-30T10:46:37.780Z,12.80
2022-11-30T10:47:47.125Z,12.78
2022-11-30T10:48:50.146Z,12.79
2022-11-30T10:49:52.723Z,12.78
2022-11-30T10:50:54.291Z,12.79
2022-11-30T10:52:02.870Z,12.76
2022-11-30T10:53:04.415Z,12.75
2022-11-30T10:54:12.294Z,12.75
2022-11-30T10:55:23.509Z,12.57
2022-11-30T10:56:24.969Z,12.70
2022-11-30T10:57:28.678Z,12.71
2022-11-30T10:58:55.761Z,12.73
2022-11-30T10:59:57.370Z,12.74
2022-11-30T11:01:01.408Z,12.74
2022-11-30T11:02:21.715Z,12.73
2022-11-30T11:03:23.897Z,12.72
2022-11-30T11:04:25.837Z,12.70
2022-11-30T11:05:30.873Z,12.72
2022-11-30T11:06:32.700Z,12.70
2022-11-30T11:07:36.593Z,12.73
2022-11-30T11:08:49.133Z,12.71
2022-11-30T11:09:51.119Z,12.71
2022-11-30T11:10:52.642Z,12.72
2022-11-30T11:11:54.969Z,12.71
2022-11-30T11:12:59.313Z,12.72
2022-11-30T11:14:20.358Z,12.68
2022-11-30T11:15:24.852Z,12.66
2022-11-30T11:16:26.615Z,12.68
2022-11-30T11:17:29.049Z,12.68
2022-11-30T11:18:31.178Z,12.69
2022-11-30T11:19:34.629Z,12.71
2022-11-30T11:20:38.578Z,12.70
2022-11-30T11:21:47.427Z,12.70
2022-11-30T11:22:48.896Z,12.67
2022-11-30T11:23:58.719Z,12.68
2022-11-30T11:25:19.371Z,12.71
2022-11-30T11:26:21.364Z,12.70
2022-11-30T11:27:44.879Z,12.71
2022-11-30T11:28:50.233Z,12.73
2022-11-30T11:30:17.965Z,12.76
2022-11-30T11:31:46.505Z,12.78
2022-11-30T11:32:58.885Z,12.79
2022-11-30T11:34:03.207Z,12.82
2022-11-30T11:35:10.346Z,12.82
2022-11-30T11:36:11.794Z,12.81
2022-11-30T11:37:20.189Z,12.80
2022-11-30T11:38:27.467Z,12.79
2022-11-30T11:39:29.499Z,12.80
2022-11-30T11:40:31.027Z,12.81
2022-11-30T11:41:37.482Z,12.82
2022-11-30T11:42:52.078Z,12.82
2022-11-30T11:44:03.194Z,12.85
2022-11-30T11:45:04.891Z,12.85
2022-11-30T11:46:13.069Z,12.84
2022-11-30T11:47:27.901Z,12.81
2022-11-30T11:48:29.599Z,12.80
2022-11-30T11:49:37.376Z,12.76
2022-11-30T11:51:08.008Z,12.76
2022-11-30T11:52:11.374Z,12.79
2022-11-30T11:53:24.976Z,12.81
2022-11-30T11:54:29.438Z,12.83
2022-11-30T11:55:31.009Z,12.85
2022-11-30T11:56:33.994Z,12.87
2022-11-30T11:57:41.112Z,12.87
2022-11-30T11:58:47.437Z,12.87
2022-11-30T12:00:12.493Z,12.85
2022-11-30T12:02:44.668Z,12.87
2022-11-30T12:03:57.766Z,12.88
2022-11-30T12:05:00.442Z,12.87
2022-11-30T12:06:13.100Z,12.88
2022-11-30T12:07:24.211Z,12.88
2022-11-30T12:08:36.282Z,12.86
2022-11-30T12:09:39.575Z,12.87
2022-11-30T12:10:52.913Z,12.88
2022-11-30T12:11:54.949Z,12.90
2022-11-30T12:12:56.483Z,12.89
2022-11-30T12:13:58.012Z,12.90
2022-11-30T12:14:59.602Z,12.88
2022-11-30T12:16:01.312Z,12.88
2022-11-30T12:17:21.686Z,12.89
2022-11-30T12:18:43.045Z,12.87
2022-11-30T12:19:53.578Z,12.86
2022-11-30T12:20:59.034Z,12.87
2022-11-30T12:22:20.924Z,12.86
2022-11-30T12:23:25.166Z,12.86
2022-11-30T12:24:35.514Z,12.86
2022-11-30T12:25:39.762Z,12.86
2022-11-30T12:26:44.677Z,12.88
2022-11-30T12:28:01.663Z,12.88
2022-11-30T12:29:24.045Z,12.89
2022-11-30T12:30:32.325Z,12.87
2022-11-30T12:31:38.506Z,12.87
2022-11-30T12:33:02.572Z,12.89
2022-11-30T12:34:07.086Z,12.91
2022-11-30T12:35:17.698Z,12.91
2022-11-30T12:36:28.555Z,12.94
2022-11-30T12:37:48.033Z,12.95
2022-11-30T12:38:52.587Z,12.98
2022-11-30T12:40:03.146Z,13.00
2022-11-30T12:41:13.155Z,13.01
2022-11-30T12:42:14.620Z,13.01
2022-11-30T12:45:22.071Z,13.01
2022-11-30T12:46:32.418Z,13.01
2022-11-30T12:47:54.227Z,13.01
2022-11-30T12:49:17.148Z,13.01
2022-11-30T12:50:21.535Z,13.01
2022-11-30T12:51:41.739Z,13.02
2022-11-30T12:52:55.252Z,13.02
2022-11-30T12:53:59.466Z,13.03
2022-11-30T12:55:11.547Z,13.02
2022-11-30T12:56:15.989Z,13.02
2022-11-30T12:57:20.410Z,13.04
2022-11-30T12:58:36.938Z,13.04
2022-11-30T12:59:44.597Z,13.06
2022-11-30T13:01:07.743Z,13.05
2022-11-30T13:02:21.132Z,13.07
2022-11-30T13:03:28.841Z,13.08
2022-11-30T13:04:58.989Z,13.08
2022-11-30T13:06:01.113Z,13.08
2022-11-30T13:07:05.956Z,13.09
2022-11-30T13:08:45.998Z,13.10
2022-11-30T13:09:47.546Z,13.11
2022-11-30T13:10:55.938Z,13.10
2022-11-30T13:11:59.231Z,13.11
2022-11-30T13:13:04.514Z,13.11
2022-11-30T13:14:13.439Z,13.12
2022-11-30T13:15:21.229Z,13.12
2022-11-30T13:16:23.326Z,13.11
2022-11-30T13:17:24.909Z,13.12
2022-11-30T13:18:27.251Z,13.12
2022-11-30T13:19:47.277Z,13.10
2022-11-30T13:20:48.719Z,13.09
2022-11-30T13:21:52.857Z,13.10
2022-11-30T13:22:56.865Z,13.08
2022-11-30T13:24:01.367Z,13.07
2022-11-30T13:25:04.334Z,13.07
2022-11-30T13:26:32.358Z,13.07
2022-11-30T13:27:40.218Z,13.06
2022-11-30T13:28:41.655Z,13.07
2022-11-30T13:29:46.235Z,13.08
2022-11-30T13:30:56.254Z,13.07
2022-11-30T13:32:05.699Z,13.08
2022-11-30T13:33:25.862Z,13.07
2022-11-30T13:34:28.076Z,13.07
2022-11-30T13:35:29.615Z,13.05
2022-11-30T13:36:40.309Z,13.05
2022-11-30T13:37:44.834Z,13.02
2022-11-30T13:38:46.406Z,13.00
2022-11-30T13:39:51.346Z,12.96
2022-11-30T13:40:56.226Z,12.93
2022-11-30T13:42:06.433Z,12.95
2022-11-30T13:43:23.146Z,12.93
2022-11-30T13:44:37.248Z,12.94
2022-11-30T13:45:38.858Z,12.92
2022-11-30T13:46:49.442Z,12.92
2022-11-30T13:47:51.633Z,12.91
2022-11-30T13:49:22.641Z,12.92
2022-11-30T13:50:27.183Z,12.94
2022-11-30T13:51:35.338Z,12.95
2022-11-30T13:52:58.989Z,12.96
2022-11-30T13:54:27.823Z,12.98
2022-11-30T13:55:35.742Z,12.99
2022-11-30T13:56:37.219Z,13.01
2022-11-30T13:57:38.671Z,13.03
2022-11-30T13:58:59.388Z,13.03
2022-11-30T14:00:01.503Z,13.04